sensor_id;sensor_type;location;lat;lon;timestamp;temperature;humidity
38568;DHT22;24338;48.280;10.970;2023-04-15T00:01:11;5.10;99.90
38568;DHT22;24338;48.280;10.970;2023-04-15T00:03:38;5.10;99.90
38568;DHT22;24338;48.280;10.970;2023-04-15T00:06:06;5.10;99.90
38568;DHT22;24338;48.280;10.970;2023-04-15T00:08:33;5.10;99.90
38568;DHT22;24338;48.280;10.970;2023-04-15T00:11:00;5.10;99.90
38568;DHT22;24338;48.280;10.970;2023-04-15T00:13:31;5.10;99.90
38568;DHT22;24338;48.280;10.970;2023-04-15T00:16:01;5.10;99.90
38568;DHT22;24338;48.280;10.970;2023-04-15T00:18:28;5.10;99.90
38568;DHT22;24338;48.280;10.970;2023-04-15T00:20:55;5.10;99.90
38568;DHT22;24338;48.280;10.970;2023-04-15T00:23:22;5.00;99.90
38568;DHT22;24338;48.280;10.970;2023-04-15T00:25:49;5.00;99.90
38568;DHT22;24338;48.280;10.970;2023-04-15T00:28:16;5.00;99.90
38568;DHT22;24338;48.280;10.970;2023-04-15T00:30:44;5.00;99.90
38568;DHT22;24338;48.280;10.970;2023-04-15T00:33:12;4.90;99.90
38568;DHT22;24338;48.280;10.970;2023-04-15T00:35:39;4.90;99.90
38568;DHT22;24338;48.280;10.970;2023-04-15T00:38:06;4.90;99.90
38568;DHT22;24338;48.280;10.970;2023-04-15T00:40:36;4.80;99.90
38568;DHT22;24338;48.280;10.970;2023-04-15T00:43:03;4.80;99.90
38568;DHT22;24338;48.280;10.970;2023-04-15T00:45:31;4.80;99.90
38568;DHT22;24338;48.280;10.970;2023-04-15T00:47:59;4.70;99.90
38568;DHT22;24338;48.280;10.970;2023-04-15T00:50:26;4.70;99.90
38568;DHT22;24338;48.280;10.970;2023-04-15T00:52:53;4.70;99.90
38568;DHT22;24338;48.280;10.970;2023-04-15T00:55:19;4.60;99.90
38568;DHT22;24338;48.280;10.970;2023-04-15T00:57:47;4.60;99.90
38568;DHT22;24338;48.280;10.970;2023-04-15T01:00:14;4.50;99.90
38568;DHT22;24338;48.280;10.970;2023-04-15T01:02:42;4.50;99.90
38568;DHT22;24338;48.280;10.970;2023-04-15T01:05:09;4.40;99.90
38568;DHT22;24338;48.280;10.970;2023-04-15T01:07:36;4.40;99.90
38568;DHT22;24338;48.280;10.970;2023-04-15T01:10:03;4.30;99.90
38568;DHT22;24338;48.280;10.970;2023-04-15T01:12:32;4.30;99.90
38568;DHT22;24338;48.280;10.970;2023-04-15T01:15:00;4.30;99.90
38568;DHT22;24338;48.280;10.970;2023-04-15T01:17:28;4.20;99.90
38568;DHT22;24338;48.280;10.970;2023-04-15T01:19:55;4.20;99.90
38568;DHT22;24338;48.280;10.970;2023-04-15T01:22:25;4.20;99.90
38568;DHT22;24338;48.280;10.970;2023-04-15T01:25:03;4.10;99.90
38568;DHT22;24338;48.280;10.970;2023-04-15T01:27:32;4.10;99.90
38568;DHT22;24338;48.280;10.970;2023-04-15T01:30:00;4.10;99.90
38568;DHT22;24338;48.280;10.970;2023-04-15T01:32:30;4.00;99.90
38568;DHT22;24338;48.280;10.970;2023-04-15T01:34:57;4.00;99.90
38568;DHT22;24338;48.280;10.970;2023-04-15T01:37:24;4.10;99.90
38568;DHT22;24338;48.280;10.970;2023-04-15T01:39:51;4.00;99.90
38568;DHT22;24338;48.280;10.970;2023-04-15T01:42:20;4.00;99.90
38568;DHT22;24338;48.280;10.970;2023-04-15T01:44:47;4.10;99.90
38568;DHT22;24338;48.280;10.970;2023-04-15T01:47:14;4.00;99.90
38568;DHT22;24338;48.280;10.970;2023-04-15T01:49:41;4.00;99.90
38568;DHT22;24338;48.280;10.970;2023-04-15T01:52:07;4.00;99.90
38568;DHT22;24338;48.280;10.970;2023-04-15T01:54:34;3.90;99.90
38568;DHT22;24338;48.280;10.970;2023-04-15T01:57:01;3.90;99.90
38568;DHT22;24338;48.280;10.970;2023-04-15T01:59:30;4.00;99.90
38568;DHT22;24338;48.280;10.970;2023-04-15T02:01:57;4.00;99.90
38568;DHT22;24338;48.280;10.970;2023-04-15T02:04:25;4.00;99.90
38568;DHT22;24338;48.280;10.970;2023-04-15T02:06:52;4.00;99.90
38568;DHT22;24338;48.280;10.970;2023-04-15T02:09:19;4.00;99.90
38568;DHT22;24338;48.280;10.970;2023-04-15T02:11:46;4.00;99.90
38568;DHT22;24338;48.280;10.970;2023-04-15T02:14:13;4.00;99.90
38568;DHT22;24338;48.280;10.970;2023-04-15T02:16:40;4.10;99.90
38568;DHT22;24338;48.280;10.970;2023-04-15T02:19:06;4.10;99.90
38568;DHT22;24338;48.280;10.970;2023-04-15T02:21:34;4.10;99.90
38568;DHT22;24338;48.280;10.970;2023-04-15T02:24:01;4.10;99.90
38568;DHT22;24338;48.280;10.970;2023-04-15T02:26:28;4.10;99.90
38568;DHT22;24338;48.280;10.970;2023-04-15T02:28:58;4.10;99.90
38568;DHT22;24338;48.280;10.970;2023-04-15T02:31:25;4.10;99.90
38568;DHT22;24338;48.280;10.970;2023-04-15T02:33:52;4.10;99.90
38568;DHT22;24338;48.280;10.970;2023-04-15T02:36:19;4.10;99.90
38568;DHT22;24338;48.280;10.970;2023-04-15T02:38:46;4.10;99.90
38568;DHT22;24338;48.280;10.970;2023-04-15T02:41:13;4.10;99.90
38568;DHT22;24338;48.280;10.970;2023-04-15T02:43:40;4.10;99.90
38568;DHT22;24338;48.280;10.970;2023-04-15T02:46:07;4.10;99.90
38568;DHT22;24338;48.280;10.970;2023-04-15T02:48:34;4.10;99.90
38568;DHT22;24338;48.280;10.970;2023-04-15T02:51:12;4.10;99.90
38568;DHT22;24338;48.280;10.970;2023-04-15T02:53:39;4.10;99.90
38568;DHT22;24338;48.280;10.970;2023-04-15T02:56:07;4.10;99.90
38568;DHT22;24338;48.280;10.970;2023-04-15T02:58:34;4.10;99.90
38568;DHT22;24338;48.280;10.970;2023-04-15T03:01:01;4.10;99.90
38568;DHT22;24338;48.280;10.970;2023-04-15T03:03:28;4.10;99.90
38568;DHT22;24338;48.280;10.970;2023-04-15T03:05:55;4.10;99.90
38568;DHT22;24338;48.280;10.970;2023-04-15T03:08:22;4.10;99.90
38568;DHT22;24338;48.280;10.970;2023-04-15T03:10:48;4.10;99.90
38568;DHT22;24338;48.280;10.970;2023-04-15T03:13:18;4.10;99.90
38568;DHT22;24338;48.280;10.970;2023-04-15T03:15:45;4.10;99.90
38568;DHT22;24338;48.280;10.970;2023-04-15T03:18:12;4.10;99.90
38568;DHT22;24338;48.280;10.970;2023-04-15T03:20:39;4.10;99.90
38568;DHT22;24338;48.280;10.970;2023-04-15T03:23:06;4.10;99.90
38568;DHT22;24338;48.280;10.970;2023-04-15T03:25:33;4.10;99.90
38568;DHT22;24338;48.280;10.970;2023-04-15T03:28:03;4.10;99.90
38568;DHT22;24338;48.280;10.970;2023-04-15T03:30:29;4.10;99.90
38568;DHT22;24338;48.280;10.970;2023-04-15T03:32:57;4.10;99.90
38568;DHT22;24338;48.280;10.970;2023-04-15T03:35:24;4.10;99.90
38568;DHT22;24338;48.280;10.970;2023-04-15T03:37:51;4.10;99.90
38568;DHT22;24338;48.280;10.970;2023-04-15T03:40:17;4.10;99.90
38568;DHT22;24338;48.280;10.970;2023-04-15T03:42:47;4.20;99.90
38568;DHT22;24338;48.280;10.970;2023-04-15T03:45:14;4.10;99.90
38568;DHT22;24338;48.280;10.970;2023-04-15T03:47:41;4.20;99.90
38568;DHT22;24338;48.280;10.970;2023-04-15T03:50:08;4.20;99.90
38568;DHT22;24338;48.280;10.970;2023-04-15T03:52:35;4.20;99.90
38568;DHT22;24338;48.280;10.970;2023-04-15T03:55:01;4.20;99.90
38568;DHT22;24338;48.280;10.970;2023-04-15T03:57:28;4.20;99.90
38568;DHT22;24338;48.280;10.970;2023-04-15T03:59:55;4.20;99.90
38568;DHT22;24338;48.280;10.970;2023-04-15T04:02:24;4.20;99.90
38568;DHT22;24338;48.280;10.970;2023-04-15T04:04:52;4.20;99.90
38568;DHT22;24338;48.280;10.970;2023-04-15T04:07:19;4.20;99.90
38568;DHT22;24338;48.280;10.970;2023-04-15T04:09:46;4.20;99.90
38568;DHT22;24338;48.280;10.970;2023-04-15T04:12:13;4.20;99.90
38568;DHT22;24338;48.280;10.970;2023-04-15T04:14:39;4.10;99.90
38568;DHT22;24338;48.280;10.970;2023-04-15T04:17:07;4.10;99.90
38568;DHT22;24338;48.280;10.970;2023-04-15T04:19:34;4.10;99.90
38568;DHT22;24338;48.280;10.970;2023-04-15T04:22:03;4.10;99.90
38568;DHT22;24338;48.280;10.970;2023-04-15T04:24:30;4.10;99.90
38568;DHT22;24338;48.280;10.970;2023-04-15T04:26:57;4.00;99.90
38568;DHT22;24338;48.280;10.970;2023-04-15T04:29:23;4.00;99.90
38568;DHT22;24338;48.280;10.970;2023-04-15T04:31:50;4.00;99.90
38568;DHT22;24338;48.280;10.970;2023-04-15T04:34:20;4.10;99.90
38568;DHT22;24338;48.280;10.970;2023-04-15T04:36:47;4.10;99.90
38568;DHT22;24338;48.280;10.970;2023-04-15T04:39:14;4.10;99.90
38568;DHT22;24338;48.280;10.970;2023-04-15T04:41:40;4.00;99.90
38568;DHT22;24338;48.280;10.970;2023-04-15T04:44:07;4.10;99.90
38568;DHT22;24338;48.280;10.970;2023-04-15T04:46:34;4.10;99.90
38568;DHT22;24338;48.280;10.970;2023-04-15T04:49:01;4.10;99.90
38568;DHT22;24338;48.280;10.970;2023-04-15T04:51:28;4.10;99.90
38568;DHT22;24338;48.280;10.970;2023-04-15T04:53:55;4.20;99.90
38568;DHT22;24338;48.280;10.970;2023-04-15T04:56:22;4.20;99.90
38568;DHT22;24338;48.280;10.970;2023-04-15T04:58:49;4.10;99.90
38568;DHT22;24338;48.280;10.970;2023-04-15T05:01:16;4.20;99.90
38568;DHT22;24338;48.280;10.970;2023-04-15T05:03:43;4.20;99.90
38568;DHT22;24338;48.280;10.970;2023-04-15T05:06:10;4.30;99.90
38568;DHT22;24338;48.280;10.970;2023-04-15T05:08:37;4.30;99.90
38568;DHT22;24338;48.280;10.970;2023-04-15T05:11:05;4.30;99.90
38568;DHT22;24338;48.280;10.970;2023-04-15T05:13:32;4.40;99.90
38568;DHT22;24338;48.280;10.970;2023-04-15T05:15:59;4.40;99.90
38568;DHT22;24338;48.280;10.970;2023-04-15T05:18:26;4.50;99.90
38568;DHT22;24338;48.280;10.970;2023-04-15T05:20:53;4.50;99.90
38568;DHT22;24338;48.280;10.970;2023-04-15T05:23:20;4.60;99.90
38568;DHT22;24338;48.280;10.970;2023-04-15T05:25:46;4.70;99.90
38568;DHT22;24338;48.280;10.970;2023-04-15T05:28:13;4.70;99.90
38568;DHT22;24338;48.280;10.970;2023-04-15T05:30:40;4.80;99.90
38568;DHT22;24338;48.280;10.970;2023-04-15T05:33:07;4.80;99.90
38568;DHT22;24338;48.280;10.970;2023-04-15T05:35:34;4.90;99.90
38568;DHT22;24338;48.280;10.970;2023-04-15T05:38:01;4.90;99.90
38568;DHT22;24338;48.280;10.970;2023-04-15T05:40:29;4.90;99.90
38568;DHT22;24338;48.280;10.970;2023-04-15T05:42:56;4.90;99.90
38568;DHT22;24338;48.280;10.970;2023-04-15T05:45:23;4.90;99.90
38568;DHT22;24338;48.280;10.970;2023-04-15T05:47:50;4.90;99.90
38568;DHT22;24338;48.280;10.970;2023-04-15T05:50:20;4.90;99.90
38568;DHT22;24338;48.280;10.970;2023-04-15T05:52:46;4.90;99.90
38568;DHT22;24338;48.280;10.970;2023-04-15T05:55:13;4.80;99.90
38568;DHT22;24338;48.280;10.970;2023-04-15T05:57:40;4.90;99.90
38568;DHT22;24338;48.280;10.970;2023-04-15T06:00:07;4.90;99.90
38568;DHT22;24338;48.280;10.970;2023-04-15T06:02:34;4.90;99.90
38568;DHT22;24338;48.280;10.970;2023-04-15T06:05:02;4.90;99.90
38568;DHT22;24338;48.280;10.970;2023-04-15T06:07:29;4.90;99.90
38568;DHT22;24338;48.280;10.970;2023-04-15T06:09:56;5.00;99.90
38568;DHT22;24338;48.280;10.970;2023-04-15T06:12:23;5.00;99.90
38568;DHT22;24338;48.280;10.970;2023-04-15T06:14:50;5.10;99.90
38568;DHT22;24338;48.280;10.970;2023-04-15T06:17:17;5.10;99.90
38568;DHT22;24338;48.280;10.970;2023-04-15T06:19:45;5.20;99.90
38568;DHT22;24338;48.280;10.970;2023-04-15T06:22:12;5.30;99.90
38568;DHT22;24338;48.280;10.970;2023-04-15T06:24:39;5.40;99.90
38568;DHT22;24338;48.280;10.970;2023-04-15T06:27:06;5.50;99.90
38568;DHT22;24338;48.280;10.970;2023-04-15T06:29:33;5.50;99.90
38568;DHT22;24338;48.280;10.970;2023-04-15T06:32:00;5.60;99.90
38568;DHT22;24338;48.280;10.970;2023-04-15T06:34:27;5.70;99.90
38568;DHT22;24338;48.280;10.970;2023-04-15T06:36:53;5.70;99.90
38568;DHT22;24338;48.280;10.970;2023-04-15T06:39:20;5.80;99.90
38568;DHT22;24338;48.280;10.970;2023-04-15T06:41:47;5.80;99.90
38568;DHT22;24338;48.280;10.970;2023-04-15T06:44:14;5.90;99.90
38568;DHT22;24338;48.280;10.970;2023-04-15T06:46:41;5.80;99.90
38568;DHT22;24338;48.280;10.970;2023-04-15T06:49:08;5.90;99.90
38568;DHT22;24338;48.280;10.970;2023-04-15T06:51:36;6.00;99.90
38568;DHT22;24338;48.280;10.970;2023-04-15T06:54:03;5.90;99.90
38568;DHT22;24338;48.280;10.970;2023-04-15T06:56:32;6.00;99.90
38568;DHT22;24338;48.280;10.970;2023-04-15T06:58:59;6.00;99.90
38568;DHT22;24338;48.280;10.970;2023-04-15T07:01:26;6.00;99.90
38568;DHT22;24338;48.280;10.970;2023-04-15T07:03:53;6.10;99.90
38568;DHT22;24338;48.280;10.970;2023-04-15T07:06:20;6.10;99.90
38568;DHT22;24338;48.280;10.970;2023-04-15T07:08:47;6.10;99.90
38568;DHT22;24338;48.280;10.970;2023-04-15T07:11:14;6.20;99.90
38568;DHT22;24338;48.280;10.970;2023-04-15T07:13:41;6.30;99.90
38568;DHT22;24338;48.280;10.970;2023-04-15T07:16:07;6.30;99.90
38568;DHT22;24338;48.280;10.970;2023-04-15T07:18:34;6.30;99.90
38568;DHT22;24338;48.280;10.970;2023-04-15T07:21:01;6.40;99.90
38568;DHT22;24338;48.280;10.970;2023-04-15T07:23:28;6.40;99.90
38568;DHT22;24338;48.280;10.970;2023-04-15T07:25:55;6.50;99.90
38568;DHT22;24338;48.280;10.970;2023-04-15T07:28:22;6.60;99.90
38568;DHT22;24338;48.280;10.970;2023-04-15T07:30:49;6.60;99.90
38568;DHT22;24338;48.280;10.970;2023-04-15T07:33:16;6.70;99.90
38568;DHT22;24338;48.280;10.970;2023-04-15T07:35:43;6.70;99.90
38568;DHT22;24338;48.280;10.970;2023-04-15T07:38:10;6.80;99.90
38568;DHT22;24338;48.280;10.970;2023-04-15T07:40:40;6.90;99.90
38568;DHT22;24338;48.280;10.970;2023-04-15T07:43:08;7.00;99.90
38568;DHT22;24338;48.280;10.970;2023-04-15T07:45:35;7.10;99.90
38568;DHT22;24338;48.280;10.970;2023-04-15T07:48:02;7.20;99.90
38568;DHT22;24338;48.280;10.970;2023-04-15T07:50:29;7.30;99.90
38568;DHT22;24338;48.280;10.970;2023-04-15T07:52:56;7.30;99.90
38568;DHT22;24338;48.280;10.970;2023-04-15T07:55:23;7.40;99.90
38568;DHT22;24338;48.280;10.970;2023-04-15T07:57:52;7.50;99.90
38568;DHT22;24338;48.280;10.970;2023-04-15T08:00:18;7.50;99.90
38568;DHT22;24338;48.280;10.970;2023-04-15T08:02:45;7.50;99.90
38568;DHT22;24338;48.280;10.970;2023-04-15T08:05:14;7.60;99.90
38568;DHT22;24338;48.280;10.970;2023-04-15T08:07:41;7.70;99.90
38568;DHT22;24338;48.280;10.970;2023-04-15T08:10:08;7.70;99.90
38568;DHT22;24338;48.280;10.970;2023-04-15T08:12:35;7.80;99.90
38568;DHT22;24338;48.280;10.970;2023-04-15T08:15:06;7.80;99.90
38568;DHT22;24338;48.280;10.970;2023-04-15T08:17:34;7.90;99.90
38568;DHT22;24338;48.280;10.970;2023-04-15T08:20:00;8.10;99.90
38568;DHT22;24338;48.280;10.970;2023-04-15T08:22:30;8.10;99.90
38568;DHT22;24338;48.280;10.970;2023-04-15T08:24:57;8.20;99.90
38568;DHT22;24338;48.280;10.970;2023-04-15T08:27:25;8.20;99.90
38568;DHT22;24338;48.280;10.970;2023-04-15T08:29:52;8.30;99.90
38568;DHT22;24338;48.280;10.970;2023-04-15T08:32:19;8.40;99.90
38568;DHT22;24338;48.280;10.970;2023-04-15T08:34:46;8.40;99.90
38568;DHT22;24338;48.280;10.970;2023-04-15T08:37:13;8.40;99.90
38568;DHT22;24338;48.280;10.970;2023-04-15T08:39:40;8.50;99.90
38568;DHT22;24338;48.280;10.970;2023-04-15T08:42:11;8.60;99.90
38568;DHT22;24338;48.280;10.970;2023-04-15T08:44:42;8.60;99.90
38568;DHT22;24338;48.280;10.970;2023-04-15T08:47:12;8.70;99.90
38568;DHT22;24338;48.280;10.970;2023-04-15T08:49:40;8.60;99.90
38568;DHT22;24338;48.280;10.970;2023-04-15T08:52:09;8.60;99.90
38568;DHT22;24338;48.280;10.970;2023-04-15T08:54:36;8.70;99.90
38568;DHT22;24338;48.280;10.970;2023-04-15T08:57:04;8.80;99.90
38568;DHT22;24338;48.280;10.970;2023-04-15T08:59:32;8.90;99.90
38568;DHT22;24338;48.280;10.970;2023-04-15T09:01:59;9.00;99.90
38568;DHT22;24338;48.280;10.970;2023-04-15T09:04:27;9.10;99.90
38568;DHT22;24338;48.280;10.970;2023-04-15T09:06:54;9.10;99.90
38568;DHT22;24338;48.280;10.970;2023-04-15T09:09:20;9.10;99.90
38568;DHT22;24338;48.280;10.970;2023-04-15T09:11:48;9.20;99.90
38568;DHT22;24338;48.280;10.970;2023-04-15T09:14:16;9.10;99.90
38568;DHT22;24338;48.280;10.970;2023-04-15T09:17:00;9.10;99.90
38568;DHT22;24338;48.280;10.970;2023-04-15T09:19:28;9.10;99.90
38568;DHT22;24338;48.280;10.970;2023-04-15T09:21:56;9.10;99.90
38568;DHT22;24338;48.280;10.970;2023-04-15T09:24:27;9.10;99.90
38568;DHT22;24338;48.280;10.970;2023-04-15T09:26:59;9.10;99.90
38568;DHT22;24338;48.280;10.970;2023-04-15T09:29:26;9.20;99.90
38568;DHT22;24338;48.280;10.970;2023-04-15T09:31:53;9.20;99.90
38568;DHT22;24338;48.280;10.970;2023-04-15T09:34:20;9.30;99.90
38568;DHT22;24338;48.280;10.970;2023-04-15T09:36:56;9.30;99.90
38568;DHT22;24338;48.280;10.970;2023-04-15T09:39:23;9.40;99.90
38568;DHT22;24338;48.280;10.970;2023-04-15T09:42:06;9.40;99.90
38568;DHT22;24338;48.280;10.970;2023-04-15T09:44:36;9.50;99.90
38568;DHT22;24338;48.280;10.970;2023-04-15T09:47:03;9.50;99.90
38568;DHT22;24338;48.280;10.970;2023-04-15T09:49:30;9.60;99.90
38568;DHT22;24338;48.280;10.970;2023-04-15T09:52:01;9.70;99.90
38568;DHT22;24338;48.280;10.970;2023-04-15T09:54:36;9.90;99.90
38568;DHT22;24338;48.280;10.970;2023-04-15T09:57:09;10.10;99.90
38568;DHT22;24338;48.280;10.970;2023-04-15T09:59:38;10.10;99.90
38568;DHT22;24338;48.280;10.970;2023-04-15T10:02:10;10.30;99.90
38568;DHT22;24338;48.280;10.970;2023-04-15T10:04:40;10.40;99.90
38568;DHT22;24338;48.280;10.970;2023-04-15T10:07:08;10.40;99.90
38568;DHT22;24338;48.280;10.970;2023-04-15T10:09:49;10.60;99.90
38568;DHT22;24338;48.280;10.970;2023-04-15T10:12:17;10.70;99.90
38568;DHT22;24338;48.280;10.970;2023-04-15T10:14:49;10.80;99.90
38568;DHT22;24338;48.280;10.970;2023-04-15T10:17:21;10.90;99.90
38568;DHT22;24338;48.280;10.970;2023-04-15T10:19:48;11.10;99.90
38568;DHT22;24338;48.280;10.970;2023-04-15T10:22:19;11.30;99.90
38568;DHT22;24338;48.280;10.970;2023-04-15T10:24:46;11.40;99.90
38568;DHT22;24338;48.280;10.970;2023-04-15T10:27:17;11.50;99.90
38568;DHT22;24338;48.280;10.970;2023-04-15T10:29:44;11.50;99.90
38568;DHT22;24338;48.280;10.970;2023-04-15T10:32:12;11.50;99.90
38568;DHT22;24338;48.280;10.970;2023-04-15T10:34:40;11.60;99.90
38568;DHT22;24338;48.280;10.970;2023-04-15T10:37:09;11.80;99.90
38568;DHT22;24338;48.280;10.970;2023-04-15T10:39:39;11.80;99.90
38568;DHT22;24338;48.280;10.970;2023-04-15T10:44:38;11.60;98.80
38568;DHT22;24338;48.280;10.970;2023-04-15T10:47:18;11.50;99.90
38568;DHT22;24338;48.280;10.970;2023-04-15T10:49:56;11.50;99.90
38568;DHT22;24338;48.280;10.970;2023-04-15T10:52:39;11.40;99.90
38568;DHT22;24338;48.280;10.970;2023-04-15T10:55:18;11.40;99.70
38568;DHT22;24338;48.280;10.970;2023-04-15T10:57:45;11.40;99.80
38568;DHT22;24338;48.280;10.970;2023-04-15T11:00:14;11.30;97.60
38568;DHT22;24338;48.280;10.970;2023-04-15T11:05:10;10.90;97.90
38568;DHT22;24338;48.280;10.970;2023-04-15T11:07:54;10.80;97.40
38568;DHT22;24338;48.280;10.970;2023-04-15T11:18:24;9.50;99.90
38568;DHT22;24338;48.280;10.970;2023-04-15T11:20:52;9.30;99.90
38568;DHT22;24338;48.280;10.970;2023-04-15T11:23:40;9.30;99.90
38568;DHT22;24338;48.280;10.970;2023-04-15T11:26:10;9.10;99.90
38568;DHT22;24338;48.280;10.970;2023-04-15T11:28:44;9.10;99.90
38568;DHT22;24338;48.280;10.970;2023-04-15T11:31:15;9.10;99.90
38568;DHT22;24338;48.280;10.970;2023-04-15T11:33:55;9.30;99.90
38568;DHT22;24338;48.280;10.970;2023-04-15T11:36:28;9.60;99.90
38568;DHT22;24338;48.280;10.970;2023-04-15T11:38:57;9.90;99.90
38568;DHT22;24338;48.280;10.970;2023-04-15T11:41:24;10.20;99.90
38568;DHT22;24338;48.280;10.970;2023-04-15T11:43:51;10.40;99.90
38568;DHT22;24338;48.280;10.970;2023-04-15T11:46:27;10.50;95.90
38568;DHT22;24338;48.280;10.970;2023-04-15T11:48:54;10.70;92.40
38568;DHT22;24338;48.280;10.970;2023-04-15T11:51:21;10.90;91.80
38568;DHT22;24338;48.280;10.970;2023-04-15T11:53:49;10.90;93.70
38568;DHT22;24338;48.280;10.970;2023-04-15T11:56:24;11.00;91.80
38568;DHT22;24338;48.280;10.970;2023-04-15T11:58:53;11.00;91.10
38568;DHT22;24338;48.280;10.970;2023-04-15T12:03:59;10.60;88.80
38568;DHT22;24338;48.280;10.970;2023-04-15T12:06:33;10.70;90.70
38568;DHT22;24338;48.280;10.970;2023-04-15T12:11:46;10.60;85.60
38568;DHT22;24338;48.280;10.970;2023-04-15T12:14:50;10.60;85.00
38568;DHT22;24338;48.280;10.970;2023-04-15T12:17:35;10.70;87.50
38568;DHT22;24338;48.280;10.970;2023-04-15T12:20:43;10.70;84.80
38568;DHT22;24338;48.280;10.970;2023-04-15T12:23:53;10.60;85.80
38568;DHT22;24338;48.280;10.970;2023-04-15T12:27:09;10.60;89.40
38568;DHT22;24338;48.280;10.970;2023-04-15T12:30:06;10.50;86.70
38568;DHT22;24338;48.280;10.970;2023-04-15T12:32:36;10.30;88.30
38568;DHT22;24338;48.280;10.970;2023-04-15T12:35:07;10.20;89.60
38568;DHT22;24338;48.280;10.970;2023-04-15T12:37:34;10.20;90.50
38568;DHT22;24338;48.280;10.970;2023-04-15T12:40:01;10.20;90.10
38568;DHT22;24338;48.280;10.970;2023-04-15T12:42:29;10.20;91.10
38568;DHT22;24338;48.280;10.970;2023-04-15T12:44:56;10.10;91.80
38568;DHT22;24338;48.280;10.970;2023-04-15T12:47:23;10.20;92.70
38568;DHT22;24338;48.280;10.970;2023-04-15T12:49:50;10.10;91.40
38568;DHT22;24338;48.280;10.970;2023-04-15T12:52:20;10.00;91.70
38568;DHT22;24338;48.280;10.970;2023-04-15T12:54:56;10.00;92.30
38568;DHT22;24338;48.280;10.970;2023-04-15T12:57:59;9.90;93.00
38568;DHT22;24338;48.280;10.970;2023-04-15T13:01:24;9.90;93.80
38568;DHT22;24338;48.280;10.970;2023-04-15T13:04:49;9.90;94.80
38568;DHT22;24338;48.280;10.970;2023-04-15T13:08:16;9.70;95.30
38568;DHT22;24338;48.280;10.970;2023-04-15T13:11:50;9.70;96.50
38568;DHT22;24338;48.280;10.970;2023-04-15T13:15:18;9.70;96.90
38568;DHT22;24338;48.280;10.970;2023-04-15T13:18:35;9.70;96.60
38568;DHT22;24338;48.280;10.970;2023-04-15T13:21:55;9.60;98.40
38568;DHT22;24338;48.280;10.970;2023-04-15T13:24:59;9.70;96.90
38568;DHT22;24338;48.280;10.970;2023-04-15T13:27:56;9.70;95.60
38568;DHT22;24338;48.280;10.970;2023-04-15T13:31:52;9.70;94.60
38568;DHT22;24338;48.280;10.970;2023-04-15T13:38:42;9.60;93.30
38568;DHT22;24338;48.280;10.970;2023-04-15T13:42:36;9.60;94.40
38568;DHT22;24338;48.280;10.970;2023-04-15T13:46:03;9.70;95.20
38568;DHT22;24338;48.280;10.970;2023-04-15T13:49:48;9.70;96.40
38568;DHT22;24338;48.280;10.970;2023-04-15T13:53:31;9.60;96.20
38568;DHT22;24338;48.280;10.970;2023-04-15T13:56:28;9.60;96.30
38568;DHT22;24338;48.280;10.970;2023-04-15T13:59:52;9.60;96.80
38568;DHT22;24338;48.280;10.970;2023-04-15T14:03:48;9.60;96.40
38568;DHT22;24338;48.280;10.970;2023-04-15T14:07:10;9.60;97.70
38568;DHT22;24338;48.280;10.970;2023-04-15T14:10:29;9.60;98.10
38568;DHT22;24338;48.280;10.970;2023-04-15T14:14:12;9.50;97.50
38568;DHT22;24338;48.280;10.970;2023-04-15T14:17:41;9.50;99.00
38568;DHT22;24338;48.280;10.970;2023-04-15T14:20:24;9.50;99.90
38568;DHT22;24338;48.280;10.970;2023-04-15T14:23:48;9.40;99.50
38568;DHT22;24338;48.280;10.970;2023-04-15T14:27:10;9.20;99.90
38568;DHT22;24338;48.280;10.970;2023-04-15T14:30:43;9.00;99.90
38568;DHT22;24338;48.280;10.970;2023-04-15T14:34:39;8.80;99.90
38568;DHT22;24338;48.280;10.970;2023-04-15T14:38:46;8.70;99.90
38568;DHT22;24338;48.280;10.970;2023-04-15T14:42:12;8.60;99.90
38568;DHT22;24338;48.280;10.970;2023-04-15T14:45:15;8.50;99.90
38568;DHT22;24338;48.280;10.970;2023-04-15T14:48:43;8.50;99.90
38568;DHT22;24338;48.280;10.970;2023-04-15T14:52:18;8.50;99.90
38568;DHT22;24338;48.280;10.970;2023-04-15T14:55:17;8.40;99.90
38568;DHT22;24338;48.280;10.970;2023-04-15T14:59:06;8.40;99.90
38568;DHT22;24338;48.280;10.970;2023-04-15T15:02:49;8.40;99.90
38568;DHT22;24338;48.280;10.970;2023-04-15T15:05:19;8.30;99.90
38568;DHT22;24338;48.280;10.970;2023-04-15T15:07:47;8.20;99.90
38568;DHT22;24338;48.280;10.970;2023-04-15T15:10:35;8.10;99.90
38568;DHT22;24338;48.280;10.970;2023-04-15T15:13:56;8.10;99.90
38568;DHT22;24338;48.280;10.970;2023-04-15T15:19:49;7.90;99.90
38568;DHT22;24338;48.280;10.970;2023-04-15T15:22:16;7.90;99.90
38568;DHT22;24338;48.280;10.970;2023-04-15T15:24:46;7.90;99.90
38568;DHT22;24338;48.280;10.970;2023-04-15T15:27:13;7.90;99.90
38568;DHT22;24338;48.280;10.970;2023-04-15T15:29:40;7.90;99.90
38568;DHT22;24338;48.280;10.970;2023-04-15T15:32:07;7.90;99.90
38568;DHT22;24338;48.280;10.970;2023-04-15T15:34:34;7.80;99.90
38568;DHT22;24338;48.280;10.970;2023-04-15T15:37:01;7.70;99.90
38568;DHT22;24338;48.280;10.970;2023-04-15T15:39:31;7.70;99.90
38568;DHT22;24338;48.280;10.970;2023-04-15T15:41:57;7.60;99.90
38568;DHT22;24338;48.280;10.970;2023-04-15T15:44:24;7.60;99.90
38568;DHT22;24338;48.280;10.970;2023-04-15T15:46:51;7.60;99.90
38568;DHT22;24338;48.280;10.970;2023-04-15T15:49:18;7.60;99.90
38568;DHT22;24338;48.280;10.970;2023-04-15T15:51:45;7.50;99.90
38568;DHT22;24338;48.280;10.970;2023-04-15T15:54:12;7.50;99.90
38568;DHT22;24338;48.280;10.970;2023-04-15T15:56:39;7.50;99.90
38568;DHT22;24338;48.280;10.970;2023-04-15T15:59:06;7.50;99.90
38568;DHT22;24338;48.280;10.970;2023-04-15T16:01:33;7.50;99.90
38568;DHT22;24338;48.280;10.970;2023-04-15T16:03:59;7.40;99.90
38568;DHT22;24338;48.280;10.970;2023-04-15T16:06:27;7.40;99.90
38568;DHT22;24338;48.280;10.970;2023-04-15T16:08:54;7.40;99.90
38568;DHT22;24338;48.280;10.970;2023-04-15T16:11:21;7.40;99.90
38568;DHT22;24338;48.280;10.970;2023-04-15T16:13:48;7.40;99.90
38568;DHT22;24338;48.280;10.970;2023-04-15T16:16:15;7.40;99.90
38568;DHT22;24338;48.280;10.970;2023-04-15T16:18:42;7.30;99.90
38568;DHT22;24338;48.280;10.970;2023-04-15T16:21:09;7.20;99.90
38568;DHT22;24338;48.280;10.970;2023-04-15T16:23:36;7.20;99.90
38568;DHT22;24338;48.280;10.970;2023-04-15T16:26:03;7.10;99.90
38568;DHT22;24338;48.280;10.970;2023-04-15T16:28:30;7.00;99.90
38568;DHT22;24338;48.280;10.970;2023-04-15T16:30:57;7.00;99.90
38568;DHT22;24338;48.280;10.970;2023-04-15T16:33:25;7.00;99.90
38568;DHT22;24338;48.280;10.970;2023-04-15T16:35:52;7.00;99.90
38568;DHT22;24338;48.280;10.970;2023-04-15T16:38:20;7.00;99.90